Time;durP1;ratioP1;P1;durP2;ratioP2;P2;SDS_P1;SDS_P2;PMS_P1;PMS_P2;Temp;Humidity;BMP_temperature;BMP_pressure;BME280_temperature;BME280_humidity;BME280_pressure;Samples;Min_cycle;Max_cycle;Signal;HPM_P1;HPM_P2
2021/08/20 00:02:05;;;;;;;1999.90;999.90;;;;;;;14.87;79.43;95670.25;4986989;28;20196;-71
2021/08/20 00:04:32;;;;;;;1999.90;999.90;;;;;;;14.81;79.25;95671.50;4986632;28;20724;-72
2021/08/20 00:07:00;;;;;;;1999.90;999.90;;;;;;;14.87;78.77;95667.63;4986813;28;20199;-71
2021/08/20 00:09:27;;;;;;;1999.90;999.90;;;;;;;14.82;78.78;95671.19;4986853;28;20207;-71
2021/08/20 00:11:54;;;;;;;1999.90;999.90;;;;;;;14.65;79.26;95669.41;4986459;28;20203;-71
2021/08/20 00:14:21;;;;;;;1999.90;999.90;;;;;;;14.60;79.86;95669.56;4986581;28;20642;-71
2021/08/20 00:16:49;;;;;;;1999.90;999.90;;;;;;;14.71;78.99;95667.38;4986708;28;20203;-71
2021/08/20 00:19:17;;;;;;;1999.90;999.90;;;;;;;14.63;80.07;95673.44;4986662;28;20227;-71
2021/08/20 00:21:44;;;;;;;1999.90;999.90;;;;;;;14.53;81.02;95666.69;4988557;28;20207;-72
2021/08/20 00:24:14;;;;;;;1999.90;999.90;;;;;;;14.61;80.20;95650.19;4990091;28;20306;-71
2021/08/20 00:26:41;;;;;;;1999.90;999.90;;;;;;;14.68;80.17;95662.03;4989571;28;20210;-72
2021/08/20 00:29:08;;;;;;;1999.90;999.90;;;;;;;14.78;80.31;95657.22;4990193;28;20737;-71
2021/08/20 00:31:35;;;;;;;1999.90;999.90;;;;;;;14.84;79.85;95655.19;4990083;28;20602;-66
2021/08/20 00:34:03;;;;;;;1999.90;999.90;;;;;;;14.85;79.37;95659.31;4989708;28;20557;-66
2021/08/20 00:36:31;;;;;;;1999.90;999.90;;;;;;;14.69;81.02;95655.72;4989817;28;20276;-67
2021/08/20 00:38:59;;;;;;;1999.90;999.90;;;;;;;14.67;80.99;95655.25;4989836;28;20219;-65
2021/08/20 00:41:26;;;;;;;1999.90;999.90;;;;;;;14.51;81.85;95655.00;4989554;28;20235;-66
2021/08/20 00:43:53;;;;;;;1999.90;999.90;;;;;;;14.28;83.10;95649.22;4989768;28;20238;-66
2021/08/20 00:46:20;;;;;;;1999.90;999.90;;;;;;;14.17;84.56;95655.84;4989687;28;20199;-72
2021/08/20 00:48:47;;;;;;;1999.90;999.90;;;;;;;14.20;84.79;95650.75;4990079;28;20254;-72
2021/08/20 00:51:19;;;;;;;1999.90;999.90;;;;;;;14.23;84.68;95654.63;4969937;28;20192;-72
2021/08/20 00:53:48;;;;;;;1999.90;999.90;;;;;;;13.99;86.04;95660.38;4970265;28;20185;-70
2021/08/20 00:56:16;;;;;;;1999.90;999.90;;;;;;;13.97;86.43;95654.66;4970228;28;20211;-70
2021/08/20 00:58:44;;;;;;;1999.90;999.90;;;;;;;14.00;86.24;95658.50;4970152;28;20223;-70
2021/08/20 01:01:12;;;;;;;1999.90;999.90;;;;;;;14.05;86.41;95663.56;4969431;28;20200;-70
2021/08/20 01:03:39;;;;;;;1999.90;999.90;;;;;;;14.15;85.86;95663.22;4969781;28;20973;-71
2021/08/20 01:06:07;;;;;;;1999.90;999.90;;;;;;;13.99;86.44;95667.44;4970020;28;20724;-71
2021/08/20 01:08:35;;;;;;;1999.90;999.90;;;;;;;13.84;86.84;95663.47;4969779;28;20692;-72
2021/08/20 01:11:06;;;;;;;1999.90;999.90;;;;;;;13.72;87.26;95666.69;4969789;28;20597;-72
2021/08/20 01:13:36;;;;;;;1999.90;999.90;;;;;;;13.66;88.05;95667.91;4969911;28;20196;-72
2021/08/20 01:16:04;;;;;;;1999.90;999.90;;;;;;;13.57;89.01;95664.53;4969949;28;20222;-71
2021/08/20 01:18:33;;;;;;;1999.90;999.90;;;;;;;13.61;88.72;95670.66;4969826;28;20223;-72
2021/08/20 01:21:02;;;;;;;1999.90;999.90;;;;;;;13.65;88.02;95666.38;4969639;28;20191;-71
2021/08/20 01:23:29;;;;;;;1999.90;999.90;;;;;;;13.84;86.41;95662.69;4969862;28;20200;-71
2021/08/20 01:25:59;;;;;;;1999.90;999.90;;;;;;;13.95;84.95;95663.88;4969573;28;20207;-71
2021/08/20 01:28:27;;;;;;;1999.90;999.90;;;;;;;13.89;85.41;95672.97;4969444;28;20261;-71
2021/08/20 01:31:01;;;;;;;1999.90;999.90;;;;;;;13.93;86.10;95666.06;4969756;28;20363;-71
2021/08/20 01:33:28;;;;;;;1999.90;999.90;;;;;;;13.88;85.46;95669.59;4969455;28;20283;-71
2021/08/20 01:35:55;;;;;;;1999.90;999.90;;;;;;;13.90;84.09;95666.69;4969305;28;20200;-71
2021/08/20 01:38:23;;;;;;;1999.90;999.90;;;;;;;13.90;83.72;95677.13;4969148;28;20236;-70
2021/08/20 01:40:50;;;;;;;1999.90;999.90;;;;;;;13.82;83.67;95670.06;4969602;28;20269;-71
2021/08/20 01:43:19;;;;;;;1999.90;999.90;;;;;;;13.73;84.10;95668.22;4969267;28;20226;-70
2021/08/20 01:45:46;;;;;;;1999.90;999.90;;;;;;;13.77;83.57;95666.53;4969151;28;20203;-70
2021/08/20 01:48:13;;;;;;;1999.90;999.90;;;;;;;13.67;84.19;95655.63;5205424;22;20832;-75
2021/08/20 01:50:42;;;;;;;1999.90;999.90;;;;;;;13.73;84.38;95665.63;5110865;28;20199;-75
2021/08/20 01:53:11;;;;;;;1999.90;999.90;;;;;;;13.68;84.65;95662.38;5111414;28;20270;-76
2021/08/20 01:55:38;;;;;;;1999.90;999.90;;;;;;;13.71;84.34;95670.38;5110491;28;20228;-76
2021/08/20 01:58:05;;;;;;;1999.90;999.90;;;;;;;13.71;83.72;95659.16;5093188;28;20219;-76
2021/08/20 02:00:34;;;;;;;1999.90;999.90;;;;;;;13.74;84.11;95655.94;5093025;28;20709;-73
2021/08/20 02:03:01;;;;;;;1999.90;999.90;;;;;;;13.68;84.28;95655.31;5097505;28;20734;-74
2021/08/20 02:05:28;;;;;;;1999.90;999.90;;;;;;;13.72;84.11;95658.84;5108841;28;20260;-74
2021/08/20 02:07:55;;;;;;;1999.90;999.90;;;;;;;13.64;84.73;95664.84;5111065;28;20199;-74
2021/08/20 02:10:23;;;;;;;1999.90;999.90;;;;;;;13.64;84.50;95656.25;5110365;28;20283;-75
2021/08/20 02:12:50;;;;;;;1999.90;999.90;;;;;;;13.62;84.86;95650.56;5108969;28;20904;-75
2021/08/20 02:15:17;;;;;;;1999.90;999.90;;;;;;;13.58;85.26;95660.84;5100190;28;20199;-76
2021/08/20 02:17:45;;;;;;;1999.90;999.90;;;;;;;13.56;85.45;95663.00;5091136;28;20206;-76
2021/08/20 02:20:13;;;;;;;1999.90;999.90;;;;;;;13.59;85.43;95657.16;5090466;28;20627;-76
2021/08/20 02:22:40;;;;;;;1999.90;999.90;;;;;;;13.47;86.37;95662.22;5090584;28;20188;-76
2021/08/20 02:25:08;;;;;;;1999.90;999.90;;;;;;;13.43;87.02;95663.91;5090335;28;20287;-76
2021/08/20 02:27:35;;;;;;;1999.90;999.90;;;;;;;13.41;88.00;95660.06;5090701;28;20269;-77
2021/08/20 02:30:02;;;;;;;1999.90;999.90;;;;;;;13.41;87.73;95668.66;5090306;28;20191;-75
2021/08/20 02:32:29;;;;;;;1999.90;999.90;;;;;;;13.34;87.33;95666.53;5090403;28;20924;-76
2021/08/20 02:35:00;;;;;;;1999.90;999.90;;;;;;;13.30;87.67;95672.66;5090259;28;20290;-76
2021/08/20 02:37:27;;;;;;;1999.90;999.90;;;;;;;13.24;88.39;95671.28;5090490;28;20613;-76
2021/08/20 02:39:54;;;;;;;1999.90;999.90;;;;;;;13.09;89.01;95663.84;5089964;28;20645;-76
2021/08/20 02:42:21;;;;;;;1999.90;999.90;;;;;;;12.95;89.35;95664.72;5090376;28;20200;-76
2021/08/20 02:44:48;;;;;;;1999.90;999.90;;;;;;;12.95;89.84;95675.16;5105600;28;20195;-75
2021/08/20 02:47:15;;;;;;;1999.90;999.90;;;;;;;12.95;89.88;95671.81;5110215;28;20199;-76
2021/08/20 02:49:42;;;;;;;1999.90;999.90;;;;;;;12.99;89.51;95679.78;5109873;28;20254;-74
2021/08/20 02:52:10;;;;;;;1999.90;999.90;;;;;;;12.98;89.59;95678.25;5109994;28;20742;-76
2021/08/20 02:54:39;;;;;;;1999.90;999.90;;;;;;;13.04;88.81;95672.59;5110366;28;20191;-75
2021/08/20 02:57:06;;;;;;;1999.90;999.90;;;;;;;13.02;88.54;95664.28;5109911;28;20206;-76
2021/08/20 02:59:33;;;;;;;1999.90;999.90;;;;;;;13.07;88.70;95674.59;5109904;28;20225;-76
2021/08/20 03:02:00;;;;;;;1999.90;999.90;;;;;;;13.04;88.81;95669.22;5110163;28;20578;-76
2021/08/20 03:04:29;;;;;;;1999.90;999.90;;;;;;;13.04;88.60;95669.22;5110195;28;20202;-75
2021/08/20 03:06:57;;;;;;;1999.90;999.90;;;;;;;12.99;88.99;95670.13;5109888;28;20671;-76
2021/08/20 03:09:25;;;;;;;1999.90;999.90;;;;;;;12.93;88.86;95673.94;5109727;28;20191;-75
2021/08/20 03:11:52;;;;;;;1999.90;999.90;;;;;;;12.72;89.75;95671.09;5109371;28;20230;-76
2021/08/20 03:14:20;;;;;;;1999.90;999.90;;;;;;;12.81;89.90;95671.13;5110106;28;20278;-75
2021/08/20 03:16:47;;;;;;;1999.90;999.90;;;;;;;12.81;89.86;95671.91;5109692;28;20214;-75
2021/08/20 03:19:14;;;;;;;1999.90;999.90;;;;;;;12.81;89.78;95669.28;5109845;28;20249;-74
2021/08/20 03:21:41;;;;;;;1999.90;999.90;;;;;;;12.81;90.35;95668.53;5109518;28;20634;-73
2021/08/20 03:24:09;;;;;;;1999.90;999.90;;;;;;;12.81;90.05;95676.34;5108994;28;20303;-75
2021/08/20 03:26:37;;;;;;;1999.90;999.90;;;;;;;12.66;90.87;95677.53;5109161;28;20195;-74
2021/08/20 03:29:04;;;;;;;1999.90;999.90;;;;;;;12.79;90.29;95678.50;5089659;28;20282;-76
2021/08/20 03:31:32;;;;;;;1999.90;999.90;;;;;;;12.84;89.36;95686.19;5109003;28;20226;-74
2021/08/20 03:33:59;;;;;;;1999.90;999.90;;;;;;;12.84;89.45;95686.97;5109114;28;20210;-75
2021/08/20 03:36:28;;;;;;;1999.90;999.90;;;;;;;12.92;89.38;95686.22;5109025;28;20195;-76
2021/08/20 03:38:56;;;;;;;1999.90;999.90;;;;;;;12.92;89.14;95691.44;5109052;28;20207;-72
2021/08/20 03:41:24;;;;;;;1999.90;999.90;;;;;;;12.97;89.57;95698.34;5106508;28;20199;-75
2021/08/20 03:43:52;;;;;;;1999.90;999.90;;;;;;;12.95;89.49;95697.91;5109552;28;20206;-76
2021/08/20 03:46:19;;;;;;;1999.90;999.90;;;;;;;12.78;89.70;95698.59;5109780;28;20199;-74
2021/08/20 03:48:46;;;;;;;1999.90;999.90;;;;;;;12.80;90.05;95701.66;5109233;28;20234;-72
2021/08/20 03:51:14;;;;;;;1999.90;999.90;;;;;;;13.03;89.42;95707.56;5109522;28;20199;-74
2021/08/20 03:53:41;;;;;;;1999.90;999.90;;;;;;;12.98;89.29;95705.09;5109247;28;20199;-73
2021/08/20 03:56:08;;;;;;;1999.90;999.90;;;;;;;13.02;89.53;95707.88;5108718;28;20222;-74
2021/08/20 03:58:35;;;;;;;1999.90;999.90;;;;;;;13.07;88.59;95708.50;5109519;28;20213;-75
2021/08/20 04:01:06;;;;;;;1999.90;999.90;;;;;;;13.11;88.56;95713.88;5105887;28;20247;-73
2021/08/20 04:03:34;;;;;;;1999.90;999.90;;;;;;;13.07;88.12;95711.09;5108757;28;20187;-68
2021/08/20 04:06:01;;;;;;;1999.90;999.90;;;;;;;13.09;88.30;95710.81;5095017;28;20259;-75
2021/08/20 04:08:28;;;;;;;1999.90;999.90;;;;;;;13.18;87.56;95709.03;5103136;28;20207;-71
2021/08/20 04:10:55;;;;;;;1999.90;999.90;;;;;;;13.33;86.89;95711.97;5104609;28;20207;-75
2021/08/20 04:13:22;;;;;;;1999.90;999.90;;;;;;;13.30;88.08;95712.56;5097814;28;20199;-73
2021/08/20 04:15:49;;;;;;;1999.90;999.90;;;;;;;13.32;88.42;95713.03;5100389;28;20207;-75
2021/08/20 04:18:17;;;;;;;1999.90;999.90;;;;;;;13.63;87.35;95714.78;5108802;28;20275;-76
2021/08/20 04:20:45;;;;;;;1999.90;999.90;;;;;;;13.91;85.26;95717.84;5108433;28;20309;-75
2021/08/20 04:23:13;;;;;;;1999.90;999.90;;;;;;;14.29;83.63;95710.88;5108351;28;20210;-75
2021/08/20 04:25:40;;;;;;;1999.90;999.90;;;;;;;14.65;80.91;95724.34;5107778;28;20199;-74
2021/08/20 04:28:07;;;;;;;1999.90;999.90;;;;;;;14.73;80.03;95735.09;5098888;28;21007;-75
2021/08/20 04:30:34;;;;;;;1999.90;999.90;;;;;;;15.01;79.34;95723.13;5085663;28;20196;-69
2021/08/20 04:33:01;;;;;;;1999.90;999.90;;;;;;;15.21;77.78;95729.50;5085376;28;20260;-75
2021/08/20 04:35:30;;;;;;;1999.90;999.90;;;;;;;15.60;77.15;95730.97;5086237;28;20196;-75
2021/08/20 04:37:58;;;;;;;1999.90;999.90;;;;;;;15.86;77.20;95739.44;5086863;28;20276;-75
2021/08/20 04:40:25;;;;;;;1999.90;999.90;;;;;;;16.17;76.88;95742.41;5086420;28;20707;-75
2021/08/20 04:42:52;;;;;;;1999.90;999.90;;;;;;;16.48;75.15;95743.81;5087020;28;20236;-74
2021/08/20 04:45:19;;;;;;;1999.90;999.90;;;;;;;16.73;74.29;95746.22;5108343;28;20354;-75
2021/08/20 04:47:47;;;;;;;1999.90;999.90;;;;;;;16.97;74.20;95742.84;5109003;28;20278;-74
2021/08/20 04:50:14;;;;;;;1999.90;999.90;;;;;;;17.30;73.25;95752.47;5108427;28;20227;-74
2021/08/20 04:52:43;;;;;;;1999.90;999.90;;;;;;;17.43;73.83;95751.38;5109140;28;20279;-74
2021/08/20 04:55:10;;;;;;;1999.90;999.90;;;;;;;17.67;73.19;95747.97;5109012;28;20196;-75
2021/08/20 04:57:37;;;;;;;1999.90;999.90;;;;;;;17.73;71.07;95749.28;5108980;28;20199;-75
2021/08/20 05:00:07;;;;;;;1999.90;999.90;;;;;;;17.97;71.09;95744.72;5108826;28;20600;-74
2021/08/20 05:02:36;;;;;;;1999.90;999.90;;;;;;;17.90;69.87;95747.16;5109060;28;20556;-75
2021/08/20 05:05:05;;;;;;;1999.90;999.90;;;;;;;17.59;68.82;95744.38;5108693;28;20314;-75
2021/08/20 05:07:35;;;;;;;1999.90;999.90;;;;;;;17.66;68.19;95743.81;5110946;28;20234;-76
2021/08/20 05:10:06;;;;;;;1999.90;999.90;;;;;;;17.63;67.96;95751.25;5112451;28;20284;-75
2021/08/20 05:12:33;;;;;;;1999.90;999.90;;;;;;;17.33;68.81;95751.81;5112523;28;20572;-74
2021/08/20 05:15:01;;;;;;;1999.90;999.90;;;;;;;17.28;70.58;95754.69;5112385;28;20195;-73
2021/08/20 05:17:28;;;;;;;1999.90;999.90;;;;;;;17.31;71.26;95759.25;5112066;28;20248;-75
2021/08/20 05:19:55;;;;;;;1999.90;999.90;;;;;;;17.32;70.91;95755.53;5112204;28;20219;-75
2021/08/20 05:22:22;;;;;;;1999.90;999.90;;;;;;;17.28;70.77;95755.44;5112275;28;20610;-74
2021/08/20 05:24:49;;;;;;;1999.90;999.90;;;;;;;17.20;70.77;95758.94;5112273;28;20564;-74
2021/08/20 05:27:17;;;;;;;1999.90;999.90;;;;;;;17.23;71.16;95750.41;5112311;28;20228;-75
2021/08/20 05:29:44;;;;;;;1999.90;999.90;;;;;;;17.26;71.41;95762.09;5111988;28;20252;-75
2021/08/20 05:32:11;;;;;;;1999.90;999.90;;;;;;;17.33;70.95;95757.09;5111851;28;20195;-75
2021/08/20 05:34:38;;;;;;;1999.90;999.90;;;;;;;17.39;71.07;95759.13;5112269;28;20195;-75
2021/08/20 05:37:05;;;;;;;1999.90;999.90;;;;;;;17.37;70.71;95753.47;5113340;28;20586;-75
2021/08/20 05:39:32;;;;;;;1999.90;999.90;;;;;;;17.40;71.26;95758.03;5114313;28;20250;-75
2021/08/20 05:42:00;;;;;;;1999.90;999.90;;;;;;;17.34;72.47;95755.97;5113310;28;20195;-74
2021/08/20 05:44:29;;;;;;;1999.90;999.90;;;;;;;17.65;71.17;95761.44;5111659;28;20226;-75
2021/08/20 05:46:56;;;;;;;1999.90;999.90;;;;;;;17.53;71.40;95756.94;5111668;28;20202;-75
2021/08/20 05:49:24;;;;;;;1999.90;999.90;;;;;;;17.60;71.38;95769.56;5111233;28;20657;-75
2021/08/20 05:51:51;;;;;;;1999.90;999.90;;;;;;;17.81;70.75;95767.56;5111380;28;20199;-74
2021/08/20 05:54:20;;;;;;;1999.90;999.90;;;;;;;17.87;70.05;95760.97;5111444;28;20736;-74
2021/08/20 05:56:47;;;;;;;1999.90;999.90;;;;;;;18.03;69.21;95761.03;5111445;28;20229;-76
2021/08/20 05:59:15;;;;;;;1999.90;999.90;;;;;;;18.21;69.51;95757.03;5094058;28;20192;-74
2021/08/20 06:01:44;;;;;;;1999.90;999.90;;;;;;;18.44;67.87;95759.88;5091167;28;20241;-75
2021/08/20 06:04:11;;;;;;;1999.90;999.90;;;;;;;18.75;66.68;95754.69;5091133;28;20733;-75
2021/08/20 06:06:39;;;;;;;1999.90;999.90;;;;;;;18.84;67.04;95754.53;5090734;28;20276;-74
2021/08/20 06:09:06;;;;;;;1999.90;999.90;;;;;;;19.03;65.85;95757.25;5090971;28;20233;-73
2021/08/20 06:11:33;;;;;;;1999.90;999.90;;;;;;;19.16;65.85;95765.84;5090647;28;20199;-74
2021/08/20 06:14:00;;;;;;;1999.90;999.90;;;;;;;19.38;64.48;95765.22;5090978;28;20200;-73
2021/08/20 06:16:27;;;;;;;1999.90;999.90;;;;;;;19.54;64.69;95759.94;5090677;28;20556;-74
2021/08/20 06:18:56;;;;;;;1999.90;999.90;;;;;;;19.84;63.89;95752.28;5090105;28;20663;-74
2021/08/20 06:21:23;;;;;;;1999.90;999.90;;;;;;;19.76;63.72;95757.44;5090446;28;20231;-74
2021/08/20 06:23:50;;;;;;;1999.90;999.90;;;;;;;19.97;62.61;95748.44;5090729;28;20200;-74
2021/08/20 06:26:18;;;;;;;1999.90;999.90;;;;;;;20.34;62.06;95746.16;5090439;28;20203;-75
2021/08/20 06:28:45;;;;;;;1999.90;999.90;;;;;;;20.65;62.51;95748.63;5090429;28;20585;-73
2021/08/20 06:31:12;;;;;;;1999.90;999.90;;;;;;;20.42;62.05;95745.94;5090574;28;20230;-72
2021/08/20 06:33:39;;;;;;;1999.90;999.90;;;;;;;20.42;62.51;95751.22;5090581;28;20199;-72
2021/08/20 06:36:07;;;;;;;1999.90;999.90;;;;;;;21.02;60.38;95741.69;5090414;28;20200;-73
2021/08/20 06:38:35;;;;;;;1999.90;999.90;;;;;;;21.30;60.09;95746.69;5090073;28;20252;-74
2021/08/20 06:41:02;;;;;;;1999.90;999.90;;;;;;;21.57;61.52;95747.44;5090425;28;20594;-72
2021/08/20 06:43:29;;;;;;;1999.90;999.90;;;;;;;21.80;60.23;95755.31;5094615;28;20202;-72
2021/08/20 06:45:56;;;;;;;1999.90;999.90;;;;;;;22.09;57.86;95754.56;5110470;28;20203;-73
2021/08/20 06:48:23;;;;;;;1999.90;999.90;;;;;;;22.07;59.98;95751.50;5110079;28;20910;-74
2021/08/20 06:50:51;;;;;;;1999.90;999.90;;;;;;;22.31;60.01;95751.06;5110245;28;20195;-73
2021/08/20 06:53:20;;;;;;;1999.90;999.90;;;;;;;22.55;58.66;95747.13;5110326;28;20199;-75
2021/08/20 06:55:47;;;;;;;1999.90;999.90;;;;;;;22.71;57.28;95749.59;5110521;28;20195;-74
2021/08/20 06:58:14;;;;;;;1999.90;999.90;;;;;;;22.96;56.87;95749.81;5110564;28;20210;-74
2021/08/20 07:00:41;;;;;;;1999.90;999.90;;;;;;;22.92;58.05;95747.09;5109947;28;20280;-72
2021/08/20 07:03:08;;;;;;;1999.90;999.90;;;;;;;22.85;58.09;95747.06;5110405;28;20288;-74
2021/08/20 07:05:37;;;;;;;1999.90;999.90;;;;;;;23.10;56.95;95740.09;5110184;28;20199;-72
2021/08/20 07:08:07;;;;;;;1999.90;999.90;;;;;;;23.03;58.72;95739.25;5110274;28;20558;-74
2021/08/20 07:10:35;;;;;;;1999.90;999.90;;;;;;;23.38;56.10;95744.06;5110510;28;20601;-73
2021/08/20 07:13:02;;;;;;;1999.90;999.90;;;;;;;23.47;56.92;95745.28;5109884;28;20211;-74
2021/08/20 07:15:29;;;;;;;1999.90;999.90;;;;;;;23.81;54.10;95742.47;5110394;28;20282;-73
2021/08/20 07:17:56;;;;;;;1999.90;999.90;;;;;;;23.71;56.42;95746.56;5110297;28;20272;-75
2021/08/20 07:20:23;;;;;;;1999.90;999.90;;;;;;;23.97;57.06;95748.97;5109772;28;20234;-74
2021/08/20 07:22:50;;;;;;;1999.90;999.90;;;;;;;24.08;53.89;95745.59;5109797;28;20683;-74
2021/08/20 07:25:18;;;;;;;1999.90;999.90;;;;;;;24.08;54.22;95756.22;5109948;28;20202;-74
2021/08/20 07:27:46;;;;;;;1999.90;999.90;;;;;;;24.10;54.86;95738.78;5109936;28;20260;-74
2021/08/20 07:30:14;;;;;;;1999.90;999.90;;;;;;;24.34;53.92;95742.69;5109661;28;20230;-75
2021/08/20 07:32:41;;;;;;;1999.90;999.90;;;;;;;24.27;53.47;95746.06;5109972;28;20199;-75
2021/08/20 07:35:08;;;;;;;1999.90;999.90;;;;;;;24.42;53.35;95741.56;5109723;28;20206;-75
2021/08/20 07:37:35;;;;;;;1999.90;999.90;;;;;;;24.65;51.39;95747.31;5109917;28;20714;-73
2021/08/20 07:40:03;;;;;;;1999.90;999.90;;;;;;;24.73;53.03;95743.53;5109339;28;20314;-75
2021/08/20 07:42:30;;;;;;;1999.90;999.90;;;;;;;24.75;51.67;95745.81;5109442;28;20252;-74
2021/08/20 07:44:58;;;;;;;1999.90;999.90;;;;;;;24.92;51.13;95744.31;5099651;28;20204;-75
2021/08/20 07:47:25;;;;;;;1999.90;999.90;;;;;;;24.99;50.14;95734.47;5089224;28;20246;-75
2021/08/20 07:49:52;;;;;;;1999.90;999.90;;;;;;;25.10;50.55;95723.84;5102227;28;20607;-75
2021/08/20 07:52:19;;;;;;;1999.90;999.90;;;;;;;25.22;49.80;95721.53;5109665;28;20698;-75
2021/08/20 07:54:47;;;;;;;1999.90;999.90;;;;;;;25.46;51.38;95729.84;5106277;28;20360;-75
2021/08/20 07:57:14;;;;;;;1999.90;999.90;;;;;;;25.63;50.26;95724.53;5109652;28;20203;-76
2021/08/20 07:59:41;;;;;;;1999.90;999.90;;;;;;;25.58;48.23;95724.16;5109639;28;20203;-76
2021/08/20 08:02:11;;;;;;;1999.90;999.90;;;;;;;25.81;47.78;95729.03;5109502;28;21032;-75
2021/08/20 08:04:38;;;;;;;1999.90;999.90;;;;;;;25.59;47.47;95728.34;5109653;28;20272;-75
2021/08/20 08:07:05;;;;;;;1999.90;999.90;;;;;;;25.54;49.83;95729.47;5109517;28;20271;-75
2021/08/20 08:09:32;;;;;;;1999.90;999.90;;;;;;;25.83;48.98;95734.75;5109346;28;20674;-75
2021/08/20 08:11:59;;;;;;;1999.90;999.90;;;;;;;25.98;48.08;95728.22;5109197;28;20210;-75
2021/08/20 08:14:26;;;;;;;1999.90;999.90;;;;;;;26.13;48.13;95727.03;5109710;28;20225;-74
2021/08/20 08:16:53;;;;;;;1999.90;999.90;;;;;;;26.15;46.11;95730.06;5109373;28;20207;-75
2021/08/20 08:19:22;;;;;;;1999.90;999.90;;;;;;;26.21;47.46;95728.50;5109309;28;20195;-75
2021/08/20 08:21:49;;;;;;;1999.90;999.90;;;;;;;26.46;45.71;95733.72;5108952;28;20226;-75
2021/08/20 08:24:16;;;;;;;1999.90;999.90;;;;;;;26.50;46.96;95727.22;5109510;28;20199;-75
2021/08/20 08:26:43;;;;;;;1999.90;999.90;;;;;;;26.80;46.74;95725.94;5109060;28;20248;-76
2021/08/20 08:29:10;;;;;;;1999.90;999.90;;;;;;;26.58;44.89;95713.88;5109387;28;20619;-75
2021/08/20 08:31:37;;;;;;;1999.90;999.90;;;;;;;26.74;45.68;95716.81;5109226;28;20673;-75
2021/08/20 08:34:04;;;;;;;1999.90;999.90;;;;;;;26.85;43.86;95720.16;5109598;28;20203;-75
2021/08/20 08:36:35;;;;;;;1999.90;999.90;;;;;;;26.89;42.63;95716.34;5109516;28;20623;-75
2021/08/20 08:39:02;;;;;;;1999.90;999.90;;;;;;;26.72;43.60;95719.88;5109073;28;20240;-75
2021/08/20 08:41:31;;;;;;;1999.90;999.90;;;;;;;26.96;43.53;95720.84;5109622;28;20323;-74
2021/08/20 08:44:00;;;;;;;1999.90;999.90;;;;;;;27.01;42.13;95717.78;5113242;28;20205;-74
2021/08/20 08:46:29;;;;;;;1999.90;999.90;;;;;;;27.16;42.52;95719.16;5113226;28;20277;-75
2021/08/20 08:48:57;;;;;;;1999.90;999.90;;;;;;;27.22;42.42;95714.16;5112476;28;20227;-74
2021/08/20 08:51:24;;;;;;;1999.90;999.90;;;;;;;27.29;40.64;95712.22;5112957;28;20222;-74
2021/08/20 08:53:53;;;;;;;1999.90;999.90;;;;;;;27.23;40.59;95713.78;5112620;28;20255;-74
2021/08/20 08:56:20;;;;;;;1999.90;999.90;;;;;;;27.23;41.88;95705.78;5112863;28;20286;-74
2021/08/20 08:58:48;;;;;;;1999.90;999.90;;;;;;;27.26;41.10;95704.97;5112796;28;20199;-74
2021/08/20 09:01:38;;;;;;;1999.90;999.90;;;;;;;27.63;41.19;95703.50;5112463;28;20218;-75
2021/08/20 09:04:12;;;;;;;1999.90;999.90;;;;;;;27.46;40.49;95694.47;5105882;28;20250;-74
2021/08/20 09:06:41;;;;;;;1999.90;999.90;;;;;;;27.23;40.97;95703.09;5112450;28;20240;-74
2021/08/20 09:09:11;;;;;;;1999.90;999.90;;;;;;;27.35;40.95;95694.59;5112383;28;20195;-75
2021/08/20 09:11:38;;;;;;;1999.90;999.90;;;;;;;27.34;41.15;95703.00;5112833;28;20187;-75
2021/08/20 09:14:06;;;;;;;1999.90;999.90;;;;;;;27.36;43.13;95696.09;5112521;28;20206;-75
2021/08/20 09:16:40;;;;;;;1999.90;999.90;;;;;;;27.63;41.31;95692.81;5112162;28;20736;-75
2021/08/20 09:19:13;;;;;;;1999.90;999.90;;;;;;;27.79;40.99;95687.69;5113153;28;20191;-76
2021/08/20 09:21:41;;;;;;;1999.90;999.90;;;;;;;27.70;41.40;95696.16;5112514;28;20290;-76
2021/08/20 09:24:33;;;;;;;1999.90;999.90;;;;;;;27.75;40.60;95697.63;5112595;28;20203;-76
2021/08/20 09:27:33;;;;;;;1999.90;999.90;;;;;;;28.20;41.50;95699.00;5112206;28;20199;-75
2021/08/20 09:30:06;;;;;;;1999.90;999.90;;;;;;;28.07;41.60;95697.25;5009457;28;20183;-75
2021/08/20 09:32:33;;;;;;;1999.90;999.90;;;;;;;28.04;42.87;95696.16;5009374;28;20190;-75
2021/08/20 09:35:00;;;;;;;1999.90;999.90;;;;;;;28.34;40.64;95682.03;5009288;28;20194;-75
2021/08/20 09:37:28;;;;;;;1999.90;999.90;;;;;;;28.42;41.76;95688.78;5009071;28;20203;-75
2021/08/20 09:40:04;;;;;;;1999.90;999.90;;;;;;;28.43;40.10;95684.22;5009013;28;20286;-75
2021/08/20 09:42:31;;;;;;;1999.90;999.90;;;;;;;28.44;40.44;95678.47;5009121;28;20941;-75
2021/08/20 09:45:19;;;;;;;1999.90;999.90;;;;;;;28.59;41.60;95679.75;5008944;28;20674;-76
2021/08/20 09:47:48;;;;;;;1999.90;999.90;;;;;;;28.73;40.05;95670.78;5008714;28;20210;-76
2021/08/20 09:50:15;;;;;;;1999.90;999.90;;;;;;;28.58;40.70;95677.50;5008850;28;20234;-76
2021/08/20 09:52:42;;;;;;;1999.90;999.90;;;;;;;28.68;40.21;95677.34;5008052;28;20210;-75
2021/08/20 09:55:11;;;;;;;1999.90;999.90;;;;;;;28.46;38.85;95678.03;5008251;28;20586;-75
2021/08/20 09:57:40;;;;;;;1999.90;999.90;;;;;;;28.52;40.86;95671.06;5008801;28;20198;-75
2021/08/20 10:00:09;;;;;;;1999.90;999.90;;;;;;;28.72;39.67;95677.31;5024821;28;20203;-75
2021/08/20 10:02:41;;;;;;;1999.90;999.90;;;;;;;28.87;38.36;95678.59;5094125;28;20223;-75
2021/08/20 10:05:10;;;;;;;1999.90;999.90;;;;;;;28.97;38.49;95674.22;5090993;28;20282;-75
2021/08/20 10:07:39;;;;;;;1999.90;999.90;;;;;;;28.95;38.48;95669.28;5090950;28;20191;-75
2021/08/20 10:10:10;;;;;;;1999.90;999.90;;;;;;;29.10;38.73;95667.09;5090932;28;20282;-75
2021/08/20 10:12:41;;;;;;;1999.90;999.90;;;;;;;28.96;37.27;95673.47;5090693;28;20656;-75
2021/08/20 10:15:10;;;;;;;1999.90;999.90;;;;;;;29.02;39.33;95663.81;5091221;28;20290;-76
2021/08/20 10:17:37;;;;;;;1999.90;999.90;;;;;;;29.02;38.80;95661.13;5090872;28;20680;-76
2021/08/20 10:20:06;;;;;;;1999.90;999.90;;;;;;;28.53;37.70;95664.56;5090983;28;20206;-76
2021/08/20 10:22:34;;;;;;;1999.90;999.90;;;;;;;28.64;37.74;95657.88;5090444;28;20726;-75
2021/08/20 10:25:02;;;;;;;1999.90;999.90;;;;;;;28.65;38.82;95653.28;5090756;28;20195;-75
2021/08/20 10:27:34;;;;;;;1999.90;999.90;;;;;;;28.87;37.95;95654.50;5090707;28;20219;-75
2021/08/20 10:30:02;;;;;;;1999.90;999.90;;;;;;;28.85;37.74;95646.13;5090416;28;20202;-75
2021/08/20 10:32:29;;;;;;;1999.90;999.90;;;;;;;28.83;38.35;95648.47;5090593;28;20225;-76
2021/08/20 10:34:56;;;;;;;1999.90;999.90;;;;;;;28.98;38.16;95643.63;5090377;28;20277;-75
2021/08/20 10:37:28;;;;;;;1999.90;999.90;;;;;;;29.20;38.02;95646.66;5090231;28;20200;-75
2021/08/20 10:39:56;;;;;;;1999.90;999.90;;;;;;;29.31;38.03;95625.84;5090474;28;20198;-75
2021/08/20 10:42:35;;;;;;;1999.90;999.90;;;;;;;29.54;37.77;95636.50;5090268;28;20744;-76
2021/08/20 10:45:08;;;;;;;1999.90;999.90;;;;;;;29.52;35.81;95628.13;5108043;28;20260;-75
2021/08/20 10:47:35;;;;;;;1999.90;999.90;;;;;;;29.43;36.55;95630.59;5110939;28;20199;-76
2021/08/20 10:50:13;;;;;;;1999.90;999.90;;;;;;;29.66;37.38;95624.41;5116869;28;20256;-75
2021/08/20 10:52:42;;;;;;;1999.90;999.90;;;;;;;29.77;35.52;95627.63;5119436;28;20265;-76
2021/08/20 10:55:32;;;;;;;1999.90;999.90;;;;;;;29.69;35.13;95618.25;5125327;28;20203;-77
2021/08/20 10:58:05;;;;;;;1999.90;999.90;;;;;;;29.70;35.74;95614.38;5110976;28;20226;-76
2021/08/20 11:00:35;;;;;;;1999.90;999.90;;;;;;;29.63;35.55;95609.91;5110630;28;20183;-76